KLM740 HRYR-FOOL
Flight info
| Callsign | KLM740 |
|---|---|
| Flight time | 3h 2m |
| Altitude | 40000 |
| Route | KAROS1D KAROS DCT BKV DCT ZIRUD DCT KIN DCT ILBOK DCT OTK DCT NAVTO DITKA1V |
| Aircraft | B772/H-SDE2E3FGHIJ5LORVWXY/LB1D1 |
Departure
| Time | 2026-04-16 07:55 |
|---|---|
| Airport | Kigali International Airport (HRYR) |
Arrival
| Time | 2026-04-16 10:57 |
|---|---|
| Airport | Libreville Leon M'ba International Airport (FOOL) |
| Time | Latitude | Longitude | Altitude | Speed | Heading |
|---|---|---|---|---|---|
| 2026-04-16 07:50 | -1.96598 | 30.12418 | 4914 ft | 0 kts | 100° |
| 2026-04-16 07:54 | -1.96606 | 30.12477 | 4913 ft | 35 kts | 98° |
| 2026-04-16 07:54 | -1.96716 | 30.13015 | 4905 ft | 121 kts | 101° |
| 2026-04-16 07:55 | -1.96882 | 30.14089 | 4961 ft | 185 kts | 99° |
| 2026-04-16 07:55 | -1.97127 | 30.15464 | 5522 ft | 214 kts | 101° |
| 2026-04-16 07:55 | -1.97355 | 30.16956 | 6203 ft | 218 kts | 99° |
| 2026-04-16 07:55 | -1.97538 | 30.18486 | 6825 ft | 228 kts | 99° |
| 2026-04-16 07:56 | -1.97707 | 30.20017 | 7395 ft | 221 kts | 98° |
| 2026-04-16 07:56 | -1.97887 | 30.21569 | 7982 ft | 225 kts | 98° |
| 2026-04-16 07:56 | -1.98212 | 30.23113 | 8555 ft | 233 kts | 114° |
| 2026-04-16 07:56 | -1.99249 | 30.24406 | 9129 ft | 252 kts | 144° |
| 2026-04-16 07:57 | -2.00975 | 30.24968 | 9705 ft | 271 kts | 179° |
| 2026-04-16 07:57 | -2.02804 | 30.24416 | 10298 ft | 286 kts | 214° |
| 2026-04-16 07:57 | -2.04036 | 30.22901 | 10893 ft | 288 kts | 249° |
| 2026-04-16 07:57 | -2.04223 | 30.20917 | 11487 ft | 286 kts | 284° |
| 2026-04-16 07:58 | -2.03279 | 30.19174 | 12132 ft | 292 kts | 319° |
| 2026-04-16 07:58 | -2.01609 | 30.18063 | 12760 ft | 290 kts | 334° |
| 2026-04-16 07:58 | -1.99784 | 30.17154 | 13382 ft | 294 kts | 333° |
| 2026-04-16 07:58 | -1.98022 | 30.16075 | 14020 ft | 301 kts | 326° |
| 2026-04-16 07:59 | -1.96362 | 30.14800 | 14547 ft | 301 kts | 323° |
| 2026-04-16 07:59 | -1.94688 | 30.13506 | 15121 ft | 306 kts | 325° |
| 2026-04-16 07:59 | -1.92956 | 30.12263 | 15682 ft | 308 kts | 326° |
| 2026-04-16 07:59 | -1.91210 | 30.11027 | 16261 ft | 318 kts | 326° |
| 2026-04-16 08:00 | -1.89368 | 30.09691 | 16808 ft | 339 kts | 325° |
| 2026-04-16 08:00 | -1.87381 | 30.08236 | 17094 ft | 368 kts | 324° |
| 2026-04-16 08:00 | -1.85230 | 30.06673 | 17401 ft | 394 kts | 325° |
| 2026-04-16 08:00 | -1.82941 | 30.05017 | 17708 ft | 417 kts | 325° |
| 2026-04-16 08:01 | -1.80486 | 30.03341 | 18031 ft | 435 kts | 330° |
| 2026-04-16 08:01 | -1.77924 | 30.01629 | 18325 ft | 448 kts | 320° |
| 2026-04-16 08:01 | -1.75812 | 29.99337 | 18577 ft | 452 kts | 306° |
| 2026-04-16 08:01 | -1.74276 | 29.96597 | 18840 ft | 452 kts | 292° |
| 2026-04-16 08:02 | -1.73408 | 29.93574 | 19090 ft | 455 kts | 279° |
| 2026-04-16 08:02 | -1.73787 | 29.87342 | 19571 ft | 456 kts | 253° |
| 2026-04-16 08:02 | -1.75013 | 29.84422 | 19811 ft | 457 kts | 240° |
| 2026-04-16 08:03 | -1.76785 | 29.81792 | 20057 ft | 457 kts | 232° |
| 2026-04-16 08:03 | -1.78759 | 29.79288 | 20303 ft | 459 kts | 231° |
| 2026-04-16 08:03 | -1.80712 | 29.76758 | 20543 ft | 461 kts | 233° |
| 2026-04-16 08:03 | -1.82538 | 29.74109 | 20784 ft | 463 kts | 237° |
| 2026-04-16 08:04 | -1.84100 | 29.71284 | 21034 ft | 466 kts | 245° |
| 2026-04-16 08:04 | -1.85268 | 29.68254 | 21281 ft | 468 kts | 251° |
| 2026-04-16 08:04 | -1.86255 | 29.65144 | 21501 ft | 471 kts | 252° |
| 2026-04-16 08:04 | -1.87269 | 29.62029 | 21737 ft | 472 kts | 250° |
| 2026-04-16 08:05 | -1.88499 | 29.58986 | 21974 ft | 474 kts | 246° |
| 2026-04-16 08:05 | -1.89795 | 29.55943 | 22231 ft | 476 kts | 248° |
| 2026-04-16 08:05 | -1.90979 | 29.52846 | 22482 ft | 478 kts | 250° |
| 2026-04-16 08:05 | -1.92111 | 29.49703 | 22741 ft | 482 kts | 249° |
| 2026-04-16 08:06 | -1.93321 | 29.46554 | 22983 ft | 485 kts | 248° |
| 2026-04-16 08:06 | -1.94567 | 29.43456 | 23233 ft | 486 kts | 248° |
| 2026-04-16 08:06 | -1.95796 | 29.40301 | 23494 ft | 488 kts | 249° |
| 2026-04-16 08:06 | -1.96996 | 29.37111 | 23746 ft | 492 kts | 249° |
| 2026-04-16 08:07 | -1.98213 | 29.33925 | 23952 ft | 491 kts | 249° |
| 2026-04-16 08:07 | -1.99458 | 29.30742 | 24148 ft | 493 kts | 248° |
| 2026-04-16 08:07 | -2.00707 | 29.27532 | 24357 ft | 495 kts | 248° |
| 2026-04-16 08:07 | -2.01934 | 29.24328 | 24570 ft | 493 kts | 249° |
| 2026-04-16 08:08 | -2.03165 | 29.21113 | 24786 ft | 494 kts | 248° |
| 2026-04-16 08:08 | -2.04405 | 29.17910 | 25010 ft | 495 kts | 248° |
| 2026-04-16 08:08 | -2.05637 | 29.14733 | 25232 ft | 496 kts | 248° |
| 2026-04-16 08:08 | -2.06880 | 29.11502 | 25442 ft | 497 kts | 248° |
| 2026-04-16 08:09 | -2.08121 | 29.08271 | 25672 ft | 499 kts | 248° |
| 2026-04-16 08:09 | -2.09371 | 29.05034 | 25899 ft | 500 kts | 248° |
| 2026-04-16 08:09 | -2.10625 | 29.01786 | 26134 ft | 501 kts | 248° |
| 2026-04-16 08:09 | -2.11881 | 28.98528 | 26352 ft | 503 kts | 248° |
| 2026-04-16 08:10 | -2.13139 | 28.95259 | 26587 ft | 504 kts | 248° |
| 2026-04-16 08:10 | -2.14404 | 28.91974 | 26817 ft | 508 kts | 248° |
| 2026-04-16 08:10 | -2.15678 | 28.88676 | 27047 ft | 508 kts | 248° |
| 2026-04-16 08:10 | -2.16952 | 28.85370 | 27280 ft | 513 kts | 248° |
| 2026-04-16 08:11 | -2.18236 | 28.82037 | 27534 ft | 512 kts | 248° |
| 2026-04-16 08:11 | -2.19519 | 28.78703 | 27784 ft | 515 kts | 248° |
| 2026-04-16 08:11 | -2.20812 | 28.75348 | 28017 ft | 518 kts | 248° |
| 2026-04-16 08:11 | -2.22105 | 28.71994 | 28267 ft | 517 kts | 248° |
| 2026-04-16 08:12 | -2.23402 | 28.68626 | 28525 ft | 520 kts | 247° |
| 2026-04-16 08:12 | -2.24688 | 28.65286 | 28759 ft | 522 kts | 248° |
| 2026-04-16 08:12 | -2.25994 | 28.61896 | 29006 ft | 521 kts | 248° |
| 2026-04-16 08:12 | -2.27297 | 28.58514 | 29274 ft | 522 kts | 248° |
| 2026-04-16 08:13 | -2.28601 | 28.55125 | 29545 ft | 520 kts | 248° |
| 2026-04-16 08:13 | -2.29903 | 28.51744 | 29785 ft | 521 kts | 248° |
| 2026-04-16 08:13 | -2.31204 | 28.48366 | 30044 ft | 520 kts | 248° |
| 2026-04-16 08:13 | -2.32508 | 28.44981 | 30270 ft | 518 kts | 248° |
| 2026-04-16 08:14 | -2.33783 | 28.41666 | 30477 ft | 517 kts | 248° |
| 2026-04-16 08:14 | -2.35074 | 28.38313 | 30699 ft | 515 kts | 248° |
| 2026-04-16 08:14 | -2.36359 | 28.34976 | 30924 ft | 514 kts | 248° |
| 2026-04-16 08:14 | -2.37643 | 28.31640 | 31144 ft | 514 kts | 248° |
| 2026-04-16 08:15 | -2.38924 | 28.28311 | 31357 ft | 512 kts | 248° |
| 2026-04-16 08:15 | -2.40204 | 28.24984 | 31589 ft | 511 kts | 248° |
| 2026-04-16 08:15 | -2.41475 | 28.21680 | 31822 ft | 509 kts | 248° |
| 2026-04-16 08:15 | -2.42749 | 28.18371 | 32049 ft | 507 kts | 248° |
| 2026-04-16 08:16 | -2.44016 | 28.15077 | 32290 ft | 507 kts | 248° |
| 2026-04-16 08:16 | -2.45266 | 28.11826 | 32520 ft | 504 kts | 248° |
| 2026-04-16 08:16 | -2.46511 | 28.08543 | 32761 ft | 504 kts | 251° |
| 2026-04-16 08:16 | -2.47270 | 28.05124 | 33035 ft | 504 kts | 264° |
| 2026-04-16 08:17 | -2.47299 | 28.01612 | 33339 ft | 507 kts | 276° |
| 2026-04-16 08:17 | -2.46637 | 27.98164 | 33633 ft | 505 kts | 284° |
| 2026-04-16 08:17 | -2.45586 | 27.94796 | 33899 ft | 505 kts | 288° |
| 2026-04-16 08:17 | -2.44450 | 27.91486 | 34128 ft | 502 kts | 287° |
| 2026-04-16 08:18 | -2.43396 | 27.88159 | 34356 ft | 502 kts | 284° |
| 2026-04-16 08:19 | -2.39369 | 27.64271 | 35977 ft | 495 kts | 278° |
| 2026-04-16 08:20 | -2.38817 | 27.60861 | 36213 ft | 495 kts | 279° |
| 2026-04-16 08:20 | -2.38207 | 27.57511 | 36443 ft | 494 kts | 279° |
| 2026-04-16 08:20 | -2.37601 | 27.54132 | 36681 ft | 493 kts | 278° |
| 2026-04-16 08:20 | -2.37039 | 27.50745 | 36923 ft | 492 kts | 278° |
| 2026-04-16 08:21 | -2.36478 | 27.47368 | 37168 ft | 493 kts | 279° |
| 2026-04-16 08:21 | -2.35888 | 27.43989 | 37408 ft | 491 kts | 279° |
| 2026-04-16 08:21 | -2.35299 | 27.40633 | 37660 ft | 488 kts | 279° |
| 2026-04-16 08:21 | -2.34727 | 27.37277 | 37918 ft | 490 kts | 279° |
| 2026-04-16 08:22 | -2.34166 | 27.33957 | 38163 ft | 489 kts | 279° |
| 2026-04-16 08:22 | -2.33588 | 27.30605 | 38415 ft | 488 kts | 279° |
| 2026-04-16 08:22 | -2.33008 | 27.27257 | 38666 ft | 488 kts | 279° |
| 2026-04-16 08:22 | -2.32434 | 27.23917 | 38881 ft | 486 kts | 279° |
| 2026-04-16 08:23 | -2.31865 | 27.20583 | 39100 ft | 486 kts | 279° |
| 2026-04-16 08:23 | -2.31292 | 27.17247 | 39324 ft | 487 kts | 279° |
| 2026-04-16 08:23 | -2.30716 | 27.13905 | 39550 ft | 488 kts | 280° |
| 2026-04-16 08:23 | -2.30139 | 27.10557 | 39747 ft | 489 kts | 280° |
| 2026-04-16 08:24 | -2.28998 | 27.03909 | 39744 ft | 485 kts | 280° |
| 2026-04-16 08:24 | -2.27856 | 26.97270 | 39749 ft | 484 kts | 280° |
| 2026-04-16 08:25 | -2.26713 | 26.90624 | 39746 ft | 485 kts | 280° |
| 2026-04-16 08:25 | -2.25568 | 26.83973 | 39741 ft | 486 kts | 280° |
| 2026-04-16 08:26 | -2.24418 | 26.77287 | 39745 ft | 488 kts | 280° |
| 2026-04-16 08:26 | -2.23460 | 26.71727 | 39743 ft | 488 kts | 280° |
| 2026-04-16 08:27 | -2.22309 | 26.65044 | 39746 ft | 486 kts | 280° |
| 2026-04-16 08:27 | -2.21160 | 26.58373 | 39749 ft | 487 kts | 280° |
| 2026-04-16 08:28 | -2.20018 | 26.51743 | 39741 ft | 487 kts | 280° |
| 2026-04-16 08:28 | -2.18869 | 26.45076 | 39742 ft | 486 kts | 280° |
| 2026-04-16 08:29 | -2.17719 | 26.38405 | 39743 ft | 487 kts | 280° |
| 2026-04-16 08:29 | -2.16566 | 26.31722 | 39744 ft | 486 kts | 280° |
| 2026-04-16 08:30 | -2.15417 | 26.25059 | 39752 ft | 486 kts | 280° |
| 2026-04-16 08:30 | -2.14266 | 26.18389 | 39748 ft | 487 kts | 280° |
| 2026-04-16 08:31 | -2.13115 | 26.11718 | 39750 ft | 487 kts | 280° |
| 2026-04-16 08:31 | -2.11964 | 26.05048 | 39749 ft | 487 kts | 280° |
| 2026-04-16 08:32 | -2.10809 | 25.98365 | 39747 ft | 487 kts | 280° |
| 2026-04-16 08:32 | -2.09662 | 25.91721 | 39739 ft | 487 kts | 280° |
| 2026-04-16 08:33 | -2.08508 | 25.85042 | 39753 ft | 488 kts | 280° |
| 2026-04-16 08:33 | -2.07353 | 25.78354 | 39753 ft | 487 kts | 280° |
| 2026-04-16 08:34 | -2.06199 | 25.71681 | 39742 ft | 487 kts | 280° |
| 2026-04-16 08:34 | -2.05047 | 25.65015 | 39740 ft | 486 kts | 280° |
| 2026-04-16 08:35 | -2.03901 | 25.58391 | 39739 ft | 487 kts | 280° |
| 2026-04-16 08:35 | -2.02747 | 25.51719 | 39743 ft | 487 kts | 280° |
| 2026-04-16 08:36 | -2.01589 | 25.45027 | 39748 ft | 488 kts | 280° |
| 2026-04-16 08:36 | -2.00432 | 25.38342 | 39745 ft | 487 kts | 280° |
| 2026-04-16 08:37 | -1.99276 | 25.31664 | 39742 ft | 487 kts | 280° |
| 2026-04-16 08:37 | -1.98127 | 25.25032 | 39735 ft | 487 kts | 280° |
| 2026-04-16 08:38 | -1.96971 | 25.18356 | 39738 ft | 487 kts | 280° |
| 2026-04-16 08:38 | -1.95814 | 25.11676 | 39737 ft | 487 kts | 280° |
| 2026-04-16 08:39 | -1.94655 | 25.04990 | 39743 ft | 487 kts | 280° |
| 2026-04-16 08:39 | -1.93497 | 24.98309 | 39739 ft | 488 kts | 280° |
| 2026-04-16 08:40 | -1.92342 | 24.91646 | 39734 ft | 488 kts | 280° |
| 2026-04-16 08:40 | -1.91183 | 24.84958 | 39735 ft | 488 kts | 280° |
| 2026-04-16 08:41 | -1.90028 | 24.78304 | 39733 ft | 488 kts | 280° |
| 2026-04-16 08:41 | -1.88868 | 24.71616 | 39736 ft | 487 kts | 280° |
| 2026-04-16 08:42 | -1.87709 | 24.64940 | 39731 ft | 487 kts | 280° |
| 2026-04-16 08:42 | -1.86553 | 24.58275 | 39733 ft | 486 kts | 280° |
| 2026-04-16 08:43 | -1.85395 | 24.51609 | 39735 ft | 487 kts | 280° |
| 2026-04-16 08:43 | -1.84243 | 24.44974 | 39738 ft | 487 kts | 280° |
| 2026-04-16 08:44 | -1.83083 | 24.38293 | 39737 ft | 488 kts | 280° |
| 2026-04-16 08:44 | -1.81921 | 24.31606 | 39740 ft | 488 kts | 280° |
| 2026-04-16 08:45 | -1.80760 | 24.24926 | 39747 ft | 487 kts | 280° |
| 2026-04-16 08:45 | -1.79599 | 24.18246 | 39738 ft | 488 kts | 280° |
| 2026-04-16 08:46 | -1.78437 | 24.11559 | 39739 ft | 488 kts | 280° |
| 2026-04-16 08:46 | -1.77274 | 24.04877 | 39737 ft | 488 kts | 280° |
| 2026-04-16 08:47 | -1.76106 | 23.98155 | 39742 ft | 491 kts | 280° |
| 2026-04-16 08:47 | -1.74937 | 23.91438 | 39742 ft | 490 kts | 280° |
| 2026-04-16 08:48 | -1.73769 | 23.84725 | 39732 ft | 491 kts | 280° |
| 2026-04-16 08:48 | -1.72604 | 23.78031 | 39731 ft | 492 kts | 280° |
| 2026-04-16 08:49 | -1.71428 | 23.71273 | 39739 ft | 494 kts | 280° |
| 2026-04-16 08:49 | -1.70247 | 23.64497 | 39745 ft | 494 kts | 280° |
| 2026-04-16 08:50 | -1.69070 | 23.57735 | 39737 ft | 494 kts | 280° |
| 2026-04-16 08:50 | -1.67893 | 23.50979 | 39732 ft | 494 kts | 280° |
| 2026-04-16 08:51 | -1.66715 | 23.44212 | 39730 ft | 494 kts | 280° |
| 2026-04-16 08:51 | -1.65533 | 23.37429 | 39738 ft | 498 kts | 281° |
| 2026-04-16 08:52 | -1.64354 | 23.30669 | 39730 ft | 496 kts | 281° |
| 2026-04-16 08:52 | -1.63172 | 23.23883 | 39735 ft | 496 kts | 281° |
| 2026-04-16 08:53 | -1.61986 | 23.17088 | 39738 ft | 496 kts | 281° |
| 2026-04-16 08:53 | -1.60802 | 23.10297 | 39734 ft | 496 kts | 281° |
| 2026-04-16 08:54 | -1.59620 | 23.03519 | 39730 ft | 495 kts | 281° |
| 2026-04-16 08:54 | -1.58437 | 22.96740 | 39728 ft | 495 kts | 281° |
| 2026-04-16 08:55 | -1.57253 | 22.89953 | 39735 ft | 496 kts | 281° |
| 2026-04-16 08:55 | -1.56072 | 22.83192 | 39737 ft | 497 kts | 281° |
| 2026-04-16 08:56 | -1.54886 | 22.76398 | 39732 ft | 495 kts | 281° |
| 2026-04-16 08:56 | -1.53707 | 22.69642 | 39732 ft | 492 kts | 281° |
| 2026-04-16 08:57 | -1.52528 | 22.62895 | 39736 ft | 493 kts | 281° |
| 2026-04-16 08:57 | -1.51349 | 22.56141 | 39738 ft | 493 kts | 281° |
| 2026-04-16 08:58 | -1.50167 | 22.49378 | 39736 ft | 493 kts | 281° |
| 2026-04-16 08:58 | -1.48993 | 22.42657 | 39730 ft | 494 kts | 281° |
| 2026-04-16 08:59 | -1.47807 | 22.35872 | 39735 ft | 496 kts | 281° |
| 2026-04-16 08:59 | -1.46620 | 22.29081 | 39735 ft | 496 kts | 281° |
| 2026-04-16 09:00 | -1.45434 | 22.22298 | 39731 ft | 495 kts | 281° |
| 2026-04-16 09:00 | -1.44248 | 22.15516 | 39734 ft | 495 kts | 281° |
| 2026-04-16 09:01 | -1.42469 | 22.05347 | 39729 ft | 495 kts | 281° |
| 2026-04-16 09:02 | -1.41283 | 21.98570 | 39734 ft | 494 kts | 281° |
| 2026-04-16 09:02 | -1.40101 | 21.91809 | 39742 ft | 493 kts | 281° |
| 2026-04-16 09:03 | -1.38916 | 21.85042 | 39735 ft | 494 kts | 281° |
| 2026-04-16 09:03 | -1.37731 | 21.78276 | 39731 ft | 495 kts | 281° |
| 2026-04-16 09:04 | -1.36544 | 21.71493 | 39744 ft | 499 kts | 281° |
| 2026-04-16 09:04 | -1.35351 | 21.64678 | 39740 ft | 497 kts | 281° |
| 2026-04-16 09:05 | -1.34157 | 21.57865 | 39735 ft | 498 kts | 281° |
| 2026-04-16 09:05 | -1.32963 | 21.51044 | 39737 ft | 498 kts | 281° |
| 2026-04-16 09:06 | -1.31767 | 21.44221 | 39737 ft | 499 kts | 281° |
| 2026-04-16 09:06 | -1.30571 | 21.37389 | 39740 ft | 499 kts | 281° |
| 2026-04-16 09:07 | -1.29381 | 21.30602 | 39730 ft | 499 kts | 281° |
| 2026-04-16 09:07 | -1.28184 | 21.23774 | 39734 ft | 497 kts | 281° |
| 2026-04-16 09:08 | -1.26992 | 21.16974 | 39726 ft | 497 kts | 281° |
| 2026-04-16 09:08 | -1.25798 | 21.10162 | 39730 ft | 499 kts | 281° |
| 2026-04-16 09:09 | -1.24597 | 21.03316 | 39738 ft | 500 kts | 281° |
| 2026-04-16 09:09 | -1.23395 | 20.96459 | 39734 ft | 500 kts | 281° |
| 2026-04-16 09:10 | -1.22202 | 20.89662 | 39740 ft | 500 kts | 281° |
| 2026-04-16 09:10 | -1.21004 | 20.82832 | 39740 ft | 499 kts | 281° |
| 2026-04-16 09:11 | -1.19805 | 20.76000 | 39734 ft | 496 kts | 280° |
| 2026-04-16 09:11 | -1.18614 | 20.69212 | 39732 ft | 496 kts | 280° |
| 2026-04-16 09:12 | -1.17421 | 20.62414 | 39733 ft | 497 kts | 280° |
| 2026-04-16 09:12 | -1.16226 | 20.55609 | 39736 ft | 497 kts | 280° |
| 2026-04-16 09:13 | -1.15031 | 20.48804 | 39737 ft | 497 kts | 280° |
| 2026-04-16 09:13 | -1.13841 | 20.42024 | 39735 ft | 499 kts | 280° |
| 2026-04-16 09:14 | -1.12641 | 20.35191 | 39735 ft | 499 kts | 280° |
| 2026-04-16 09:14 | -1.11441 | 20.28361 | 39737 ft | 499 kts | 280° |
| 2026-04-16 09:15 | -1.10240 | 20.21524 | 39738 ft | 499 kts | 280° |
| 2026-04-16 09:15 | -1.09241 | 20.15838 | 39738 ft | 499 kts | 280° |
| 2026-04-16 09:16 | -1.08040 | 20.09004 | 39731 ft | 499 kts | 281° |
| 2026-04-16 09:16 | -1.06836 | 20.02154 | 39733 ft | 500 kts | 280° |
| 2026-04-16 09:17 | -1.05642 | 19.95359 | 39731 ft | 500 kts | 281° |
| 2026-04-16 09:17 | -1.04438 | 19.88510 | 39737 ft | 500 kts | 281° |
| 2026-04-16 09:18 | -1.03234 | 19.81660 | 39733 ft | 499 kts | 281° |
| 2026-04-16 09:18 | -1.02032 | 19.74829 | 39738 ft | 500 kts | 280° |
| 2026-04-16 09:19 | -1.00829 | 19.67986 | 39734 ft | 500 kts | 280° |
| 2026-04-16 09:19 | -0.99623 | 19.61129 | 39735 ft | 501 kts | 280° |
| 2026-04-16 09:20 | -0.98417 | 19.54273 | 39737 ft | 500 kts | 280° |
| 2026-04-16 09:20 | -0.97215 | 19.47437 | 39735 ft | 499 kts | 280° |
| 2026-04-16 09:21 | -0.96014 | 19.40613 | 39729 ft | 499 kts | 280° |
| 2026-04-16 09:21 | -0.94820 | 19.33826 | 39733 ft | 499 kts | 280° |
| 2026-04-16 09:22 | -0.93615 | 19.26984 | 39733 ft | 500 kts | 280° |
| 2026-04-16 09:22 | -0.92410 | 19.20137 | 39735 ft | 500 kts | 280° |
| 2026-04-16 09:23 | -0.91204 | 19.13285 | 39738 ft | 501 kts | 280° |
| 2026-04-16 09:23 | -0.89997 | 19.06427 | 39735 ft | 499 kts | 280° |
| 2026-04-16 09:24 | -0.88794 | 18.99597 | 39727 ft | 499 kts | 280° |
| 2026-04-16 09:24 | -0.87599 | 18.92810 | 39724 ft | 499 kts | 280° |
| 2026-04-16 09:25 | -0.86397 | 18.85980 | 39727 ft | 498 kts | 280° |
| 2026-04-16 09:25 | -0.85194 | 18.79154 | 39725 ft | 498 kts | 280° |
| 2026-04-16 09:26 | -0.83993 | 18.72334 | 39727 ft | 498 kts | 280° |
| 2026-04-16 09:26 | -0.82797 | 18.65542 | 39724 ft | 498 kts | 280° |
| 2026-04-16 09:27 | -0.81596 | 18.58728 | 39721 ft | 498 kts | 280° |
| 2026-04-16 09:27 | -0.80393 | 18.51900 | 39727 ft | 499 kts | 280° |
| 2026-04-16 09:28 | -0.79188 | 18.45061 | 39733 ft | 499 kts | 280° |
| 2026-04-16 09:28 | -0.77990 | 18.38267 | 39729 ft | 498 kts | 279° |
| 2026-04-16 09:29 | -0.76788 | 18.31446 | 39725 ft | 498 kts | 279° |
| 2026-04-16 09:29 | -0.75587 | 18.24633 | 39730 ft | 498 kts | 279° |
| 2026-04-16 09:30 | -0.74383 | 18.17799 | 39721 ft | 498 kts | 279° |
| 2026-04-16 09:30 | -0.73188 | 18.11022 | 39721 ft | 498 kts | 279° |
| 2026-04-16 09:31 | -0.71986 | 18.04203 | 39726 ft | 499 kts | 280° |
| 2026-04-16 09:31 | -0.70777 | 17.97351 | 39728 ft | 500 kts | 280° |
| 2026-04-16 09:32 | -0.69576 | 17.90541 | 39724 ft | 500 kts | 280° |
| 2026-04-16 09:32 | -0.68365 | 17.83675 | 39724 ft | 500 kts | 280° |
| 2026-04-16 09:33 | -0.67157 | 17.76824 | 39726 ft | 500 kts | 280° |
| 2026-04-16 09:33 | -0.65948 | 17.69977 | 39725 ft | 501 kts | 280° |
| 2026-04-16 09:34 | -0.64745 | 17.63152 | 39728 ft | 501 kts | 280° |
| 2026-04-16 09:34 | -0.63537 | 17.56304 | 39726 ft | 500 kts | 280° |
| 2026-04-16 09:35 | -0.62329 | 17.49458 | 39722 ft | 499 kts | 280° |
| 2026-04-16 09:35 | -0.61120 | 17.42605 | 39724 ft | 500 kts | 280° |
| 2026-04-16 09:36 | -0.59918 | 17.35794 | 39724 ft | 499 kts | 280° |
| 2026-04-16 09:36 | -0.58714 | 17.28973 | 39723 ft | 498 kts | 280° |
| 2026-04-16 09:37 | -0.57510 | 17.22152 | 39717 ft | 498 kts | 280° |
| 2026-04-16 09:37 | -0.56315 | 17.15378 | 39718 ft | 498 kts | 280° |
| 2026-04-16 09:38 | -0.55109 | 17.08547 | 39720 ft | 499 kts | 280° |
| 2026-04-16 09:38 | -0.53902 | 17.01706 | 39722 ft | 498 kts | 280° |
| 2026-04-16 09:39 | -0.52701 | 16.94908 | 39721 ft | 496 kts | 280° |
| 2026-04-16 09:39 | -0.51501 | 16.88112 | 39724 ft | 497 kts | 280° |
| 2026-04-16 09:40 | -0.50299 | 16.81303 | 39725 ft | 497 kts | 280° |
| 2026-04-16 09:40 | -0.49104 | 16.74534 | 39724 ft | 498 kts | 280° |
| 2026-04-16 09:41 | -0.47894 | 16.67678 | 39720 ft | 498 kts | 280° |
| 2026-04-16 09:41 | -0.46691 | 16.60874 | 39729 ft | 497 kts | 280° |
| 2026-04-16 09:42 | -0.45497 | 16.54111 | 39729 ft | 497 kts | 280° |
| 2026-04-16 09:42 | -0.44297 | 16.47316 | 39725 ft | 497 kts | 280° |
| 2026-04-16 09:43 | -0.43095 | 16.40510 | 39722 ft | 497 kts | 280° |
| 2026-04-16 09:43 | -0.41900 | 16.33742 | 39726 ft | 497 kts | 280° |
| 2026-04-16 09:44 | -0.40697 | 16.26933 | 39721 ft | 498 kts | 280° |
| 2026-04-16 09:44 | -0.39493 | 16.20118 | 39725 ft | 498 kts | 280° |
| 2026-04-16 09:45 | -0.38288 | 16.13297 | 39721 ft | 498 kts | 280° |
| 2026-04-16 09:45 | -0.37082 | 16.06474 | 39725 ft | 497 kts | 280° |
| 2026-04-16 09:46 | -0.35878 | 15.99659 | 39723 ft | 497 kts | 280° |
| 2026-04-16 09:46 | -0.34678 | 15.92870 | 39722 ft | 501 kts | 280° |
| 2026-04-16 09:47 | -0.33471 | 15.86033 | 39728 ft | 499 kts | 280° |
| 2026-04-16 09:47 | -0.32263 | 15.79202 | 39724 ft | 499 kts | 280° |
| 2026-04-16 09:48 | -0.31056 | 15.72365 | 39728 ft | 499 kts | 280° |
| 2026-04-16 09:48 | -0.29855 | 15.65571 | 39723 ft | 499 kts | 280° |
| 2026-04-16 09:49 | -0.28648 | 15.58744 | 39725 ft | 499 kts | 280° |
| 2026-04-16 09:49 | -0.27441 | 15.51914 | 39726 ft | 499 kts | 280° |
| 2026-04-16 09:50 | -0.26232 | 15.45072 | 39725 ft | 500 kts | 280° |
| 2026-04-16 09:50 | -0.25023 | 15.38231 | 39725 ft | 500 kts | 280° |
| 2026-04-16 09:51 | -0.23820 | 15.31424 | 39721 ft | 500 kts | 280° |
| 2026-04-16 09:51 | -0.22607 | 15.24563 | 39722 ft | 501 kts | 280° |
| 2026-04-16 09:52 | -0.21394 | 15.17700 | 39729 ft | 501 kts | 280° |
| 2026-04-16 09:52 | -0.20183 | 15.10848 | 39720 ft | 500 kts | 280° |
| 2026-04-16 09:53 | -0.18981 | 15.04046 | 39719 ft | 499 kts | 280° |
| 2026-04-16 09:53 | -0.17771 | 14.97203 | 39724 ft | 500 kts | 280° |
| 2026-04-16 09:54 | -0.16559 | 14.90349 | 39722 ft | 501 kts | 280° |
| 2026-04-16 09:54 | -0.15346 | 14.83485 | 39722 ft | 501 kts | 280° |
| 2026-04-16 09:55 | -0.14134 | 14.76631 | 39719 ft | 501 kts | 280° |
| 2026-04-16 09:55 | -0.12922 | 14.69776 | 39722 ft | 501 kts | 280° |
| 2026-04-16 09:56 | -0.11718 | 14.62965 | 39722 ft | 501 kts | 280° |
| 2026-04-16 09:56 | -0.10505 | 14.56102 | 39725 ft | 501 kts | 280° |
| 2026-04-16 09:57 | -0.09291 | 14.49236 | 39723 ft | 501 kts | 280° |
| 2026-04-16 09:57 | -0.08079 | 14.42379 | 39726 ft | 501 kts | 280° |
| 2026-04-16 09:58 | -0.06868 | 14.35530 | 39729 ft | 500 kts | 280° |
| 2026-04-16 09:58 | -0.05665 | 14.28727 | 39719 ft | 499 kts | 280° |
| 2026-04-16 09:59 | -0.04453 | 14.21870 | 39718 ft | 499 kts | 280° |
| 2026-04-16 09:59 | -0.03243 | 14.15028 | 39722 ft | 500 kts | 280° |
| 2026-04-16 10:00 | -0.02034 | 14.08191 | 39718 ft | 500 kts | 280° |
| 2026-04-16 10:00 | -0.00825 | 14.01353 | 39731 ft | 500 kts | 280° |
| 2026-04-16 10:01 | 0.00980 | 13.91141 | 39729 ft | 499 kts | 280° |
| 2026-04-16 10:01 | 0.02188 | 13.84312 | 39728 ft | 499 kts | 280° |
| 2026-04-16 10:02 | 0.03395 | 13.77481 | 39730 ft | 499 kts | 280° |
| 2026-04-16 10:02 | 0.04402 | 13.71784 | 39734 ft | 500 kts | 280° |
| 2026-04-16 10:03 | 0.05615 | 13.64924 | 39738 ft | 501 kts | 280° |
| 2026-04-16 10:03 | 0.06827 | 13.58070 | 39730 ft | 500 kts | 280° |
| 2026-04-16 10:04 | 0.08030 | 13.51263 | 39733 ft | 500 kts | 280° |
| 2026-04-16 10:04 | 0.09242 | 13.44414 | 39729 ft | 500 kts | 280° |
| 2026-04-16 10:05 | 0.10452 | 13.37565 | 39728 ft | 500 kts | 280° |
| 2026-04-16 10:05 | 0.11656 | 13.30758 | 39732 ft | 501 kts | 280° |
| 2026-04-16 10:06 | 0.12868 | 13.23900 | 39726 ft | 501 kts | 280° |
| 2026-04-16 10:06 | 0.14080 | 13.17041 | 39737 ft | 501 kts | 280° |
| 2026-04-16 10:07 | 0.15294 | 13.10174 | 39727 ft | 500 kts | 280° |
| 2026-04-16 10:07 | 0.16505 | 13.03329 | 39733 ft | 499 kts | 280° |
| 2026-04-16 10:08 | 0.17706 | 12.96530 | 39728 ft | 499 kts | 280° |
| 2026-04-16 10:08 | 0.18917 | 12.89685 | 39726 ft | 499 kts | 280° |
| 2026-04-16 10:09 | 0.20127 | 12.82840 | 39725 ft | 500 kts | 280° |
| 2026-04-16 10:09 | 0.21328 | 12.76042 | 39727 ft | 500 kts | 280° |
| 2026-04-16 10:10 | 0.22536 | 12.69211 | 39732 ft | 498 kts | 280° |
| 2026-04-16 10:10 | 0.23740 | 12.62398 | 39727 ft | 498 kts | 280° |
| 2026-04-16 10:11 | 0.24937 | 12.55625 | 39726 ft | 497 kts | 280° |
| 2026-04-16 10:11 | 0.26141 | 12.48810 | 39720 ft | 498 kts | 280° |
| 2026-04-16 10:12 | 0.27345 | 12.42000 | 39735 ft | 498 kts | 280° |
| 2026-04-16 10:12 | 0.28549 | 12.35185 | 39721 ft | 498 kts | 280° |
| 2026-04-16 10:13 | 0.29754 | 12.28367 | 39720 ft | 498 kts | 280° |
| 2026-04-16 10:13 | 0.30951 | 12.21596 | 39728 ft | 498 kts | 280° |
| 2026-04-16 10:14 | 0.32158 | 12.14762 | 39738 ft | 498 kts | 280° |
| 2026-04-16 10:14 | 0.33360 | 12.07961 | 39738 ft | 499 kts | 280° |
| 2026-04-16 10:15 | 0.34567 | 12.01134 | 39736 ft | 500 kts | 280° |
| 2026-04-16 10:15 | 0.35778 | 11.94276 | 39734 ft | 500 kts | 280° |
| 2026-04-16 10:16 | 0.36988 | 11.87427 | 39734 ft | 500 kts | 280° |
| 2026-04-16 10:16 | 0.38198 | 11.80579 | 39731 ft | 499 kts | 280° |
| 2026-04-16 10:17 | 0.39397 | 11.73793 | 39725 ft | 498 kts | 280° |
| 2026-04-16 10:17 | 0.40604 | 11.66963 | 39733 ft | 499 kts | 280° |
| 2026-04-16 10:18 | 0.41799 | 11.60192 | 39729 ft | 496 kts | 280° |
| 2026-04-16 10:18 | 0.42449 | 11.53340 | 39748 ft | 497 kts | 268° |
| 2026-04-16 10:19 | 0.42161 | 11.46430 | 39740 ft | 497 kts | 267° |
| 2026-04-16 10:19 | 0.41878 | 11.39533 | 39739 ft | 496 kts | 268° |
| 2026-04-16 10:20 | 0.41598 | 11.32650 | 39738 ft | 496 kts | 267° |
| 2026-04-16 10:20 | 0.41315 | 11.25807 | 39727 ft | 496 kts | 268° |
| 2026-04-16 10:21 | 0.41036 | 11.18935 | 39730 ft | 495 kts | 268° |
| 2026-04-16 10:21 | 0.40752 | 11.12054 | 39734 ft | 495 kts | 268° |
| 2026-04-16 10:22 | 0.40471 | 11.05177 | 39732 ft | 495 kts | 268° |
| 2026-04-16 10:22 | 0.40188 | 10.98287 | 39737 ft | 495 kts | 268° |
| 2026-04-16 10:23 | 0.39906 | 10.91410 | 39726 ft | 495 kts | 268° |
| 2026-04-16 10:23 | 0.39625 | 10.84568 | 39741 ft | 496 kts | 268° |
| 2026-04-16 10:24 | 0.39343 | 10.77677 | 39740 ft | 496 kts | 268° |
| 2026-04-16 10:24 | 0.39060 | 10.70777 | 39742 ft | 496 kts | 268° |
| 2026-04-16 10:25 | 0.38777 | 10.63892 | 39738 ft | 496 kts | 268° |
| 2026-04-16 10:25 | 0.38494 | 10.57000 | 39735 ft | 496 kts | 267° |
| 2026-04-16 10:26 | 0.38216 | 10.50192 | 39733 ft | 492 kts | 267° |
| 2026-04-16 10:26 | 0.37935 | 10.43341 | 39734 ft | 493 kts | 267° |
| 2026-04-16 10:27 | 0.37654 | 10.36490 | 39729 ft | 493 kts | 267° |
| 2026-04-16 10:27 | 0.37373 | 10.29622 | 39727 ft | 494 kts | 267° |
| 2026-04-16 10:28 | 0.37092 | 10.22794 | 39723 ft | 495 kts | 267° |
| 2026-04-16 10:28 | 0.36812 | 10.15923 | 39720 ft | 493 kts | 267° |
| 2026-04-16 10:29 | 0.36531 | 10.09091 | 39712 ft | 492 kts | 267° |
| 2026-04-16 10:29 | 0.36250 | 10.02252 | 39712 ft | 493 kts | 267° |
| 2026-04-16 10:30 | 0.35966 | 9.95406 | 39714 ft | 493 kts | 267° |
| 2026-04-16 10:30 | 0.35683 | 9.88549 | 39717 ft | 494 kts | 267° |
| 2026-04-16 10:31 | 0.35402 | 9.81737 | 39716 ft | 494 kts | 266° |
| 2026-04-16 10:31 | 0.35119 | 9.74896 | 39718 ft | 492 kts | 266° |
| 2026-04-16 10:32 | 0.34837 | 9.68071 | 39712 ft | 491 kts | 266° |
| 2026-04-16 10:32 | 0.34598 | 9.61239 | 39712 ft | 491 kts | 272° |
| 2026-04-16 10:33 | 0.35081 | 9.57865 | 39737 ft | 494 kts | 285° |
| 2026-04-16 10:33 | 0.36275 | 9.54643 | 39746 ft | 496 kts | 297° |
| 2026-04-16 10:33 | 0.38095 | 9.51770 | 39744 ft | 496 kts | 310° |
| 2026-04-16 10:33 | 0.40500 | 9.49310 | 39745 ft | 495 kts | 322° |
| 2026-04-16 10:34 | 0.43359 | 9.47411 | 39745 ft | 494 kts | 334° |
| 2026-04-16 10:34 | 0.46543 | 9.46151 | 39750 ft | 492 kts | 346° |
| 2026-04-16 10:34 | 0.53341 | 9.45175 | 39724 ft | 494 kts | 355° |
| 2026-04-16 10:35 | 0.60170 | 9.44331 | 39724 ft | 494 kts | 350° |
| 2026-04-16 10:35 | 0.66638 | 9.42230 | 39742 ft | 496 kts | 329° |
| 2026-04-16 10:36 | 0.69442 | 9.40229 | 39744 ft | 497 kts | 316° |
| 2026-04-16 10:36 | 0.71763 | 9.37680 | 39749 ft | 497 kts | 304° |
| 2026-04-16 10:36 | 0.73497 | 9.34697 | 39751 ft | 496 kts | 292° |
| 2026-04-16 10:36 | 0.74562 | 9.31430 | 39748 ft | 495 kts | 279° |
| 2026-04-16 10:37 | 0.74916 | 9.28013 | 39745 ft | 494 kts | 267° |
| 2026-04-16 10:37 | 0.74545 | 9.24615 | 39749 ft | 492 kts | 255° |
| 2026-04-16 10:37 | 0.73472 | 9.21385 | 39749 ft | 489 kts | 243° |
| 2026-04-16 10:37 | 0.71740 | 9.18454 | 39750 ft | 487 kts | 230° |
| 2026-04-16 10:38 | 0.69448 | 9.15981 | 39743 ft | 484 kts | 218° |
| 2026-04-16 10:38 | 0.66737 | 9.14082 | 39747 ft | 481 kts | 206° |
| 2026-04-16 10:38 | 0.63662 | 9.12788 | 39744 ft | 479 kts | 194° |
| 2026-04-16 10:38 | 0.60405 | 9.12182 | 39744 ft | 476 kts | 182° |
| 2026-04-16 10:39 | 0.57100 | 9.12284 | 39744 ft | 475 kts | 170° |
| 2026-04-16 10:39 | 0.53909 | 9.13085 | 39745 ft | 473 kts | 158° |
| 2026-04-16 10:39 | 0.50972 | 9.14546 | 39743 ft | 472 kts | 146° |
| 2026-04-16 10:39 | 0.48421 | 9.16599 | 39741 ft | 472 kts | 134° |
| 2026-04-16 10:40 | 0.46369 | 9.19151 | 39739 ft | 472 kts | 122° |
| 2026-04-16 10:40 | 0.44819 | 9.22046 | 39723 ft | 473 kts | 115° |
| 2026-04-16 10:40 | 0.42352 | 9.28132 | 39715 ft | 472 kts | 111° |
| 2026-04-16 10:41 | 0.40512 | 9.34403 | 39730 ft | 473 kts | 96° |
| 2026-04-16 10:41 | 0.40521 | 9.37697 | 39731 ft | 476 kts | 83° |
| 2026-04-16 10:41 | 0.41233 | 9.40927 | 39731 ft | 478 kts | 71° |
| 2026-04-16 10:42 | 0.42599 | 9.43915 | 39733 ft | 481 kts | 59° |
| 2026-04-16 10:42 | 0.44592 | 9.46598 | 39733 ft | 484 kts | 47° |
| 2026-04-16 10:42 | 0.47123 | 9.48828 | 39732 ft | 486 kts | 36° |
| 2026-04-16 10:42 | 0.50074 | 9.50489 | 39732 ft | 486 kts | 23° |
| 2026-04-16 10:43 | 0.53256 | 9.51509 | 39523 ft | 475 kts | 12° |
| 2026-04-16 10:43 | 0.56510 | 9.51871 | 38887 ft | 468 kts | 0° |
| 2026-04-16 10:43 | 0.59690 | 9.51571 | 37935 ft | 463 kts | 348° |
| 2026-04-16 10:43 | 0.62730 | 9.50599 | 36940 ft | 457 kts | 335° |
| 2026-04-16 10:44 | 0.65489 | 9.49056 | 35994 ft | 450 kts | 331° |
| 2026-04-16 10:44 | 0.68219 | 9.47584 | 35061 ft | 443 kts | 335° |
| 2026-04-16 10:44 | 0.70977 | 9.46244 | 34160 ft | 437 kts | 336° |
| 2026-04-16 10:44 | 0.73717 | 9.44969 | 33186 ft | 431 kts | 337° |
| 2026-04-16 10:45 | 0.76434 | 9.43721 | 32192 ft | 426 kts | 337° |
| 2026-04-16 10:45 | 0.79109 | 9.42493 | 31248 ft | 421 kts | 338° |
| 2026-04-16 10:45 | 0.81749 | 9.41272 | 30320 ft | 416 kts | 338° |
| 2026-04-16 10:45 | 0.84359 | 9.40051 | 29347 ft | 411 kts | 337° |
| 2026-04-16 10:46 | 0.86930 | 9.38840 | 28322 ft | 406 kts | 337° |
| 2026-04-16 10:46 | 0.89438 | 9.37656 | 27346 ft | 401 kts | 337° |
| 2026-04-16 10:46 | 0.91939 | 9.36478 | 26387 ft | 395 kts | 337° |
| 2026-04-16 10:46 | 0.94409 | 9.35317 | 25466 ft | 390 kts | 337° |
| 2026-04-16 10:47 | 0.96821 | 9.34122 | 24579 ft | 384 kts | 328° |
| 2026-04-16 10:47 | 0.98779 | 9.32343 | 23766 ft | 380 kts | 307° |
| 2026-04-16 10:47 | 0.99978 | 9.30026 | 22874 ft | 375 kts | 285° |
| 2026-04-16 10:47 | 1.00261 | 9.27481 | 21955 ft | 367 kts | 263° |
| 2026-04-16 10:48 | 0.99588 | 9.25064 | 21047 ft | 359 kts | 240° |
| 2026-04-16 10:48 | 0.98071 | 9.23150 | 20175 ft | 348 kts | 216° |
| 2026-04-16 10:48 | 0.96000 | 9.22011 | 19388 ft | 334 kts | 198° |
| 2026-04-16 10:48 | 0.93818 | 9.21362 | 18584 ft | 321 kts | 192° |
| 2026-04-16 10:49 | 0.91670 | 9.20886 | 17715 ft | 311 kts | 186° |
| 2026-04-16 10:49 | 0.89541 | 9.20896 | 16750 ft | 301 kts | 168° |
| 2026-04-16 10:49 | 0.87546 | 9.21436 | 15837 ft | 294 kts | 159° |
| 2026-04-16 10:49 | 0.85641 | 9.22127 | 14941 ft | 289 kts | 157° |
| 2026-04-16 10:50 | 0.83776 | 9.22843 | 14068 ft | 285 kts | 156° |
| 2026-04-16 10:50 | 0.81941 | 9.23554 | 13204 ft | 280 kts | 156° |
| 2026-04-16 10:50 | 0.80166 | 9.24251 | 12356 ft | 274 kts | 154° |
| 2026-04-16 10:50 | 0.78549 | 9.25199 | 11497 ft | 267 kts | 144° |
| 2026-04-16 10:51 | 0.76937 | 9.26098 | 10688 ft | 264 kts | 151° |
| 2026-04-16 10:51 | 0.75296 | 9.26893 | 9883 ft | 260 kts | 152° |
| 2026-04-16 10:51 | 0.73673 | 9.27675 | 9028 ft | 257 kts | 152° |
| 2026-04-16 10:51 | 0.72067 | 9.28450 | 8172 ft | 255 kts | 152° |
| 2026-04-16 10:52 | 0.71011 | 9.28959 | 7633 ft | 253 kts | 152° |
| 2026-04-16 10:52 | 0.69429 | 9.29724 | 6803 ft | 251 kts | 153° |
| 2026-04-16 10:52 | 0.67867 | 9.30488 | 5998 ft | 249 kts | 152° |
| 2026-04-16 10:52 | 0.66316 | 9.31248 | 5146 ft | 248 kts | 153° |
| 2026-04-16 10:53 | 0.64768 | 9.31998 | 4327 ft | 246 kts | 153° |
| 2026-04-16 10:53 | 0.63247 | 9.32740 | 3616 ft | 240 kts | 153° |
| 2026-04-16 10:53 | 0.61757 | 9.33472 | 2911 ft | 237 kts | 154° |
| 2026-04-16 10:53 | 0.60316 | 9.34170 | 2511 ft | 221 kts | 154° |
| 2026-04-16 10:54 | 0.58991 | 9.34814 | 2299 ft | 205 kts | 154° |
| 2026-04-16 10:54 | 0.57759 | 9.35420 | 2044 ft | 193 kts | 154° |
| 2026-04-16 10:54 | 0.56610 | 9.35977 | 1919 ft | 176 kts | 154° |
| 2026-04-16 10:54 | 0.55487 | 9.36525 | 1744 ft | 175 kts | 153° |
| 2026-04-16 10:55 | 0.54404 | 9.37056 | 1510 ft | 174 kts | 153° |
| 2026-04-16 10:55 | 0.53242 | 9.37635 | 1277 ft | 192 kts | 152° |
| 2026-04-16 10:55 | 0.52104 | 9.38177 | 1023 ft | 175 kts | 154° |
| 2026-04-16 10:55 | 0.50997 | 9.38689 | 710 ft | 170 kts | 149° |
| 2026-04-16 10:56 | 0.49933 | 9.39223 | 436 ft | 171 kts | 147° |
| 2026-04-16 10:56 | 0.48891 | 9.39788 | 306 ft | 173 kts | 152° |
| 2026-04-16 10:56 | 0.47812 | 9.40292 | 208 ft | 170 kts | 149° |
| 2026-04-16 10:56 | 0.46833 | 9.40768 | 45 ft | 143 kts | 153° |
| 2026-04-16 10:57 | 0.46123 | 9.41110 | 40 ft | 75 kts | 152° |
| 2026-04-16 10:57 | 0.45879 | 9.41205 | 39 ft | 6 kts | 191° |
| 2026-04-16 10:57 | 0.45811 | 9.41178 | 39 ft | 19 kts | 212° |
| 2026-04-16 10:57 | 0.45771 | 9.41125 | 40 ft | 0 kts | 237° |